»·PEaware :: N17MA KAVX-KSMO

N17MA :: KAVX-KSMO

FLIGHT INFORMATION

Flight Status: Arrived
Operator: Privately registered:
United States
More flights under this callsign
Pilot: Diego M. (28112)
Aircraft: ROBIN DR-400
(DR40)
More flights by this aircraft type
Origin: KAVX Catalina
United States
Destination: KSMO Santa Monica Mun
United States
More flights between these airports :: More routes between these airports
Route: +SXC V21 SLI V8 POXKU V363 BAYJY V186 DARTS
File this flight plan on PilotEdge
Remarks: CSTP60
Altitude:
(Current/Filed)
6,000ft
Speed:
(Current/Filed)
130kts
Departed: 03-Jul-20 02:07 PM
Arrived: 03-Jul-20 02:58 PM
Distance/Time
Traveled:
37nm/0:51
Distance/Time
To Go:
Arrived

Flight Plot

Page will automatically refresh every two minutes.

Flight plan parsing failed; only flown route is shown


Map Options




Map Legend


Flown Route
Filed Route
Departure Airport
Arrival Airport
Navaid (VOR, NDB)
Fix

Horizontal Profiles

Position Reports

Time Latitude Longitude Heading Altitude Ground
Speed
03-Jul-20 13:49 33.403345 -118.416298 27 1593ft 0kts
03-Jul-20 13:50 33.403345 -118.416298 27 1593ft 0kts
03-Jul-20 13:51 33.403346 -118.416297 27 1593ft 0kts
03-Jul-20 13:52 33.403346 -118.416297 27 1593ft 0kts
03-Jul-20 13:53 33.403346 -118.416297 27 1593ft 0kts
03-Jul-20 13:54 33.403346 -118.416297 27 1593ft 0kts
03-Jul-20 13:55 33.403346 -118.416297 27 1593ft 0kts
03-Jul-20 13:56 33.403346 -118.416297 27 1593ft 0kts
03-Jul-20 13:57 33.403346 -118.416297 27 1593ft 0kts
03-Jul-20 13:58 33.403346 -118.416297 27 1593ft 0kts
03-Jul-20 13:58 33.403346 -118.416297 27 1593ft 0kts
03-Jul-20 14:00 33.403346 -118.416297 27 1593ft 0kts
03-Jul-20 14:01 33.403405 -118.415888 102 1591ft 7kts
03-Jul-20 14:01 33.404944 -118.415035 26 1583ft 12kts
03-Jul-20 14:02 33.406349 -118.412783 51 1563ft 14kts
03-Jul-20 14:04 33.407201 -118.411384 332 1553ft 0kts
03-Jul-20 14:04 33.407201 -118.411384 332 1553ft 0kts
03-Jul-20 14:05 33.407201 -118.411384 332 1553ft 0kts
03-Jul-20 14:07 33.406245 -118.413650 235 1569ft 62kts
03-Jul-20 14:07 33.396875 -118.429168 234 2639ft 72kts
03-Jul-20 14:08 33.382518 -118.452928 234 3551ft 95kts
03-Jul-20 14:09 33.365805 -118.481030 235 4011ft 119kts
03-Jul-20 14:10 33.345895 -118.514584 235 4008ft 125kts
03-Jul-20 14:11 33.322232 -118.505434 79 4084ft 133kts
03-Jul-20 14:12 33.343206 -118.473661 51 5145ft 117kts
03-Jul-20 14:13 33.362751 -118.441779 54 6005ft 133kts
03-Jul-20 14:14 33.387873 -118.404568 25 6010ft 148kts
03-Jul-20 14:15 33.422507 -118.377281 36 6008ft 150kts
03-Jul-20 14:16 33.455739 -118.346984 36 6005ft 150kts
03-Jul-20 14:17 33.489270 -118.316586 36 5993ft 151kts
03-Jul-20 14:18 33.522923 -118.286162 35 5978ft 152kts
03-Jul-20 14:19 33.556989 -118.255746 35 5966ft 153kts
03-Jul-20 14:20 33.591342 -118.225238 35 5956ft 153kts
03-Jul-20 14:21 33.625735 -118.194746 36 5953ft 153kts
03-Jul-20 14:22 33.660024 -118.164344 36 5952ft 153kts
03-Jul-20 14:23 33.694290 -118.133939 37 5950ft 152kts
03-Jul-20 14:24 33.728131 -118.103883 37 6012ft 151kts
03-Jul-20 14:25 33.762035 -118.073821 37 6009ft 151kts
03-Jul-20 14:26 33.795262 -118.043068 57 5997ft 150kts
03-Jul-20 14:27 33.819650 -118.005156 87 5999ft 146kts
03-Jul-20 14:28 33.816414 -117.956973 100 6005ft 144kts
03-Jul-20 14:29 33.820522 -117.909383 73 6007ft 149kts
03-Jul-20 14:30 33.833648 -117.862000 75 6006ft 148kts
03-Jul-20 14:31 33.846273 -117.814258 70 6004ft 150kts
03-Jul-20 14:32 33.875903 -117.790703 352 6004ft 149kts
03-Jul-20 14:33 33.917607 -117.792700 357 5995ft 150kts
03-Jul-20 14:34 33.959697 -117.792230 359 6000ft 151kts
03-Jul-20 14:35 34.001800 -117.791752 340 6000ft 150kts
03-Jul-20 14:36 34.024880 -117.830326 294 6012ft 143kts
03-Jul-20 14:37 34.043479 -117.872734 292 6017ft 143kts
03-Jul-20 14:38 34.060251 -117.916124 289 6016ft 143kts
03-Jul-20 14:39 34.076395 -117.960082 289 6014ft 143kts
03-Jul-20 14:40 34.092527 -118.004128 289 6010ft 144kts
03-Jul-20 14:41 34.094445 -118.050222 260 6006ft 140kts
03-Jul-20 14:42 34.092779 -118.097197 271 6001ft 142kts
03-Jul-20 14:43 34.100756 -118.143558 283 6002ft 144kts
03-Jul-20 14:44 34.114010 -118.189258 287 6002ft 144kts
03-Jul-20 14:45 34.129022 -118.234149 288 5734ft 143kts
03-Jul-20 14:46 34.143848 -118.277643 288 4725ft 138kts
03-Jul-20 14:47 34.158050 -118.318694 288 4009ft 124kts
03-Jul-20 14:48 34.171188 -118.355563 288 4010ft 126kts
03-Jul-20 14:49 34.182589 -118.395363 250 4005ft 122kts
03-Jul-20 14:50 34.159707 -118.387300 121 3976ft 128kts
03-Jul-20 14:51 34.131295 -118.361082 153 3279ft 136kts
03-Jul-20 14:52 34.099729 -118.353736 208 3007ft 121kts
03-Jul-20 14:53 34.074537 -118.382591 223 2548ft 125kts
03-Jul-20 14:54 34.049901 -118.411711 225 1379ft 120kts
03-Jul-20 14:55 34.031370 -118.433234 221 530ft 70kts
03-Jul-20 14:56 34.017871 -118.448871 226 162ft 44kts
03-Jul-20 14:57 34.012871 -118.453988 133 132ft 0kts
03-Jul-20 14:58 34.012767 -118.453617 101 132ft 5kts
03-Jul-20 14:59 34.013724 -118.452250 42 136ft 1kts
03-Jul-20 15:00 34.013717 -118.452193 141 136ft 0kts
03-Jul-20 15:01 34.013717 -118.452193 141 136ft 0kts

Navigation Log

Ident Type
Flight plan parsing failed, navigation log unavailable